createdAt,value
2023-12-30T00:01:01.394Z,29.59
2023-12-30T00:03:31.508Z,29.51
2023-12-30T00:06:02.541Z,29.63
2023-12-30T00:08:32.814Z,29.58
2023-12-30T00:11:03.620Z,29.66
2023-12-30T00:13:33.983Z,29.69
2023-12-30T00:16:04.364Z,29.57
2023-12-30T00:18:34.662Z,29.60
2023-12-30T00:21:05.138Z,29.75
2023-12-30T00:23:43.191Z,29.81
2023-12-30T00:26:27.787Z,29.77
2023-12-30T00:29:24.155Z,29.89
2023-12-30T00:31:55.935Z,29.82
2023-12-30T00:34:26.357Z,29.99
2023-12-30T00:36:56.361Z,29.95
2023-12-30T00:39:26.447Z,29.95
2023-12-30T00:41:56.552Z,30.03
2023-12-30T00:44:26.828Z,29.91
2023-12-30T00:46:56.821Z,29.98
2023-12-30T00:49:27.271Z,30.08
2023-12-30T00:51:57.452Z,29.94
2023-12-30T00:54:31.991Z,30.14
2023-12-30T00:57:07.927Z,30.13
2023-12-30T00:59:38.113Z,30.17
2023-12-30T01:02:08.324Z,30.16
2023-12-30T01:04:38.824Z,30.19
2023-12-30T01:07:09.406Z,30.14
2023-12-30T01:09:39.636Z,30.15
2023-12-30T01:12:10.289Z,30.25
2023-12-30T01:14:40.522Z,30.23
2023-12-30T01:17:10.699Z,30.27
2023-12-30T01:19:40.940Z,30.24
2023-12-30T01:22:13.312Z,30.29
2023-12-30T01:24:43.586Z,30.41
2023-12-30T01:27:13.888Z,30.47
2023-12-30T01:29:44.084Z,30.24
2023-12-30T01:32:14.774Z,30.39
2023-12-30T01:34:44.965Z,30.35
2023-12-30T01:37:16.351Z,30.27
2023-12-30T01:39:46.591Z,29.94
2023-12-30T01:42:17.765Z,30.23
2023-12-30T01:44:47.765Z,30.35
2023-12-30T01:47:19.146Z,30.34
2023-12-30T01:49:49.468Z,30.39
2023-12-30T01:52:19.935Z,30.39
2023-12-30T01:54:50.795Z,30.36
2023-12-30T01:57:21.483Z,30.43
2023-12-30T01:59:53.288Z,30.38
2023-12-30T02:02:24.959Z,30.37
2023-12-30T02:04:55.487Z,30.30
2023-12-30T02:07:27.060Z,30.42
2023-12-30T02:09:57.623Z,30.21
2023-12-30T02:12:28.094Z,30.44
2023-12-30T02:15:13.645Z,30.47
2023-12-30T02:17:44.102Z,30.45
2023-12-30T02:20:14.854Z,30.21
2023-12-30T02:22:49.145Z,30.57
2023-12-30T02:25:21.618Z,30.62
2023-12-30T02:27:52.010Z,30.59
2023-12-30T02:30:23.825Z,30.69
2023-12-30T02:32:57.304Z,30.46
2023-12-30T02:35:29.913Z,30.69
2023-12-30T02:37:59.602Z,30.50
2023-12-30T02:40:29.654Z,30.73
2023-12-30T02:43:00.396Z,30.80
2023-12-30T02:45:30.511Z,30.83
2023-12-30T02:48:00.940Z,30.86
2023-12-30T02:50:31.325Z,30.79
2023-12-30T02:53:01.585Z,30.89
2023-12-30T02:55:31.922Z,30.97
2023-12-30T02:58:02.115Z,30.98
2023-12-30T03:00:32.428Z,31.00
2023-12-30T03:03:02.825Z,30.97
2023-12-30T03:05:35.193Z,30.67
2023-12-30T03:08:05.674Z,30.86
2023-12-30T03:10:35.779Z,31.04
2023-12-30T03:13:06.990Z,31.01
2023-12-30T03:15:37.377Z,30.97
2023-12-30T03:18:07.909Z,31.01
2023-12-30T03:20:38.751Z,31.08
2023-12-30T03:23:09.287Z,31.00
2023-12-30T03:25:40.550Z,31.11
2023-12-30T03:28:10.898Z,31.16
2023-12-30T03:30:41.771Z,31.20
2023-12-30T03:33:11.995Z,31.28
2023-12-30T03:35:42.318Z,31.47
2023-12-30T03:38:12.419Z,31.51
2023-12-30T03:40:42.910Z,31.54
2023-12-30T03:43:14.894Z,31.62
2023-12-30T03:45:44.752Z,31.32
2023-12-30T03:48:15.897Z,31.64
2023-12-30T03:50:46.174Z,31.69
2023-12-30T03:53:16.482Z,31.57
2023-12-30T03:55:46.910Z,31.51
2023-12-30T03:58:17.608Z,31.50
2023-12-30T04:00:47.890Z,31.45
2023-12-30T04:03:18.789Z,31.45
2023-12-30T04:05:49.400Z,31.30
2023-12-30T04:08:19.507Z,31.40
2023-12-30T04:10:49.997Z,31.31
2023-12-30T04:13:21.102Z,31.45
2023-12-30T04:15:51.910Z,31.40
2023-12-30T04:18:22.642Z,31.41
2023-12-30T04:20:52.769Z,31.09
2023-12-30T04:23:23.189Z,31.42
2023-12-30T04:25:53.104Z,31.46
2023-12-30T04:28:23.872Z,31.47
2023-12-30T04:30:54.767Z,31.45
2023-12-30T04:33:25.140Z,31.49
2023-12-30T04:35:55.396Z,31.52
2023-12-30T04:38:25.706Z,31.47
2023-12-30T04:40:56.022Z,31.44
2023-12-30T04:43:26.658Z,31.57
2023-12-30T04:45:56.882Z,31.50
2023-12-30T04:48:27.315Z,31.59
2023-12-30T04:50:58.047Z,31.80
2023-12-30T04:53:28.558Z,31.90
2023-12-30T04:55:58.788Z,31.91
2023-12-30T04:58:29.276Z,31.99
2023-12-30T05:00:59.533Z,32.04
2023-12-30T05:03:30.139Z,32.12
2023-12-30T05:06:00.650Z,32.18
2023-12-30T05:08:31.831Z,32.19
2023-12-30T05:11:08.461Z,32.08
2023-12-30T05:13:39.401Z,32.25
2023-12-30T05:16:09.657Z,32.21
2023-12-30T05:18:40.503Z,32.33
2023-12-30T05:21:20.076Z,31.79
2023-12-30T05:23:50.317Z,32.36
2023-12-30T05:26:20.768Z,32.10
2023-12-30T05:28:50.868Z,32.08
2023-12-30T05:31:21.141Z,32.13
2023-12-30T05:33:51.568Z,32.13
2023-12-30T05:36:22.031Z,32.15
2023-12-30T05:38:52.558Z,32.12
2023-12-30T05:41:22.625Z,31.92
2023-12-30T05:43:53.776Z,31.81
2023-12-30T05:46:25.343Z,31.69
2023-12-30T05:48:55.874Z,31.61
2023-12-30T05:51:26.123Z,31.53
2023-12-30T05:53:56.415Z,31.51
2023-12-30T05:56:27.090Z,31.42
2023-12-30T05:58:57.627Z,31.51
2023-12-30T06:01:27.608Z,31.73
2023-12-30T06:03:58.396Z,31.73
2023-12-30T06:06:29.770Z,31.77
2023-12-30T06:09:01.184Z,31.75
2023-12-30T06:11:31.593Z,31.69
2023-12-30T06:14:02.221Z,31.63
2023-12-30T06:16:32.637Z,31.64
2023-12-30T06:19:03.088Z,31.65
2023-12-30T06:21:33.693Z,31.08
2023-12-30T06:24:03.815Z,31.58
2023-12-30T06:26:38.419Z,31.58
2023-12-30T06:29:10.611Z,31.55
2023-12-30T06:31:44.991Z,31.56
2023-12-30T06:34:15.935Z,31.55
2023-12-30T06:36:47.797Z,31.53
2023-12-30T06:39:22.319Z,31.48
2023-12-30T06:41:52.681Z,31.50
2023-12-30T06:44:22.923Z,31.15
2023-12-30T06:46:53.630Z,31.47
2023-12-30T06:49:23.861Z,31.43
2023-12-30T06:51:54.619Z,31.35
2023-12-30T06:54:25.320Z,31.46
2023-12-30T06:56:55.715Z,31.26
2023-12-30T06:59:25.981Z,31.42
2023-12-30T07:01:57.561Z,31.38
2023-12-30T07:04:28.955Z,31.30
2023-12-30T07:06:59.639Z,31.36
2023-12-30T07:09:30.063Z,31.34
2023-12-30T07:12:02.193Z,31.22
2023-12-30T07:14:36.841Z,31.35
2023-12-30T07:17:07.445Z,31.38
2023-12-30T07:19:37.811Z,31.39
2023-12-30T07:22:08.232Z,31.40
2023-12-30T07:24:39.839Z,31.06
2023-12-30T07:27:11.156Z,31.26
2023-12-30T07:29:41.962Z,31.54
2023-12-30T07:32:12.256Z,31.58
2023-12-30T07:34:42.856Z,31.81
2023-12-30T07:37:13.408Z,31.95
2023-12-30T07:39:43.854Z,31.97
2023-12-30T07:42:14.547Z,32.17
2023-12-30T07:44:44.950Z,32.11
2023-12-30T07:47:16.923Z,32.34
2023-12-30T07:49:51.609Z,32.42
2023-12-30T07:52:22.898Z,32.51
2023-12-30T07:54:53.871Z,32.38
2023-12-30T07:57:24.791Z,32.55
2023-12-30T07:59:55.337Z,32.71
2023-12-30T08:02:25.817Z,32.72
2023-12-30T08:04:58.620Z,32.74
2023-12-30T08:07:29.865Z,32.93
2023-12-30T08:10:00.295Z,32.64
2023-12-30T08:12:30.478Z,32.97
2023-12-30T08:15:01.335Z,33.07
2023-12-30T08:17:31.681Z,33.15
2023-12-30T08:20:02.410Z,33.21
2023-12-30T08:22:32.572Z,33.27
2023-12-30T08:25:02.946Z,33.17
2023-12-30T08:27:33.438Z,33.31
2023-12-30T08:30:03.642Z,33.33
2023-12-30T08:32:34.082Z,33.38
2023-12-30T08:35:05.243Z,33.35
2023-12-30T08:37:36.635Z,33.25
2023-12-30T08:40:13.152Z,33.18
2023-12-30T08:42:47.034Z,33.08
2023-12-30T08:45:20.656Z,33.11
2023-12-30T08:47:51.333Z,33.11
2023-12-30T08:50:21.288Z,33.18
2023-12-30T08:52:51.627Z,33.12
2023-12-30T08:55:22.073Z,33.19
2023-12-30T08:57:52.575Z,33.01
2023-12-30T09:00:22.695Z,33.21
2023-12-30T09:02:57.373Z,33.21
2023-12-30T09:05:28.289Z,33.09
2023-12-30T09:07:58.846Z,33.24
2023-12-30T09:10:29.900Z,33.28
2023-12-30T09:13:01.698Z,33.28
2023-12-30T09:15:32.911Z,33.32
2023-12-30T09:18:03.902Z,33.30
2023-12-30T09:20:34.346Z,33.30
2023-12-30T09:23:05.074Z,33.27
2023-12-30T09:25:35.714Z,33.28
2023-12-30T09:28:06.336Z,33.27
2023-12-30T09:30:36.792Z,33.33
2023-12-30T09:33:09.390Z,33.32
2023-12-30T09:35:41.957Z,33.36
2023-12-30T09:38:12.397Z,33.33
2023-12-30T09:40:42.563Z,33.36
2023-12-30T09:43:16.884Z,33.19
2023-12-30T09:45:47.694Z,33.40
2023-12-30T09:48:19.055Z,33.46
2023-12-30T09:50:51.862Z,33.44
2023-12-30T09:53:24.257Z,33.58
2023-12-30T09:55:55.436Z,33.85
2023-12-30T09:58:26.275Z,33.96
2023-12-30T10:00:56.851Z,34.04
2023-12-30T10:03:27.854Z,34.12
2023-12-30T10:06:02.315Z,33.71
2023-12-30T10:08:33.350Z,34.19
2023-12-30T10:11:03.545Z,34.23
2023-12-30T10:13:34.217Z,34.25
2023-12-30T10:16:08.274Z,34.29
2023-12-30T10:18:39.552Z,34.20
2023-12-30T10:21:10.608Z,33.66
2023-12-30T10:23:41.176Z,33.53
2023-12-30T10:26:11.421Z,33.44
2023-12-30T10:28:42.240Z,33.41
2023-12-30T10:31:14.119Z,33.29
2023-12-30T10:33:44.860Z,33.29
2023-12-30T10:36:16.455Z,33.09
2023-12-30T10:38:47.775Z,33.24
2023-12-30T10:41:18.273Z,33.38
2023-12-30T10:43:48.476Z,33.59
2023-12-30T10:46:21.594Z,33.74
2023-12-30T10:49:05.967Z,33.80
2023-12-30T10:51:36.917Z,33.84
2023-12-30T10:54:09.045Z,33.92
2023-12-30T10:56:43.240Z,33.94
2023-12-30T10:59:15.331Z,33.98
2023-12-30T11:01:45.614Z,33.96
2023-12-30T11:04:17.195Z,34.00
2023-12-30T11:06:58.354Z,34.02
2023-12-30T11:09:32.814Z,34.01
2023-12-30T11:12:04.948Z,34.01
2023-12-30T11:14:38.678Z,33.97
2023-12-30T11:17:09.829Z,34.00
2023-12-30T11:19:41.534Z,33.87
2023-12-30T11:22:13.571Z,33.97
2023-12-30T11:24:50.120Z,33.49
2023-12-30T11:27:20.518Z,33.95
2023-12-30T11:29:55.935Z,33.83
2023-12-30T11:32:27.121Z,33.98
2023-12-30T11:35:01.829Z,33.95
2023-12-30T11:37:35.222Z,33.92
2023-12-30T11:40:07.594Z,33.88
2023-12-30T11:42:45.600Z,33.87
2023-12-30T11:45:18.865Z,33.90
2023-12-30T11:47:49.741Z,33.87
2023-12-30T11:50:20.595Z,33.85
2023-12-30T11:52:51.042Z,33.55
2023-12-30T11:55:21.922Z,33.23
2023-12-30T11:57:53.341Z,33.23
2023-12-30T12:00:26.702Z,33.18
2023-12-30T12:02:58.851Z,33.17
2023-12-30T12:05:31.298Z,33.12
2023-12-30T12:08:02.127Z,33.15
2023-12-30T12:10:32.855Z,33.10
2023-12-30T12:13:06.902Z,33.11
2023-12-30T12:15:38.177Z,33.13
2023-12-30T12:18:10.681Z,33.03
2023-12-30T12:20:44.325Z,32.90
2023-12-30T12:23:15.614Z,32.66
2023-12-30T12:25:47.190Z,32.60
2023-12-30T12:28:19.181Z,32.19
2023-12-30T12:30:49.701Z,32.26
2023-12-30T12:33:21.873Z,32.11
2023-12-30T12:35:52.594Z,32.09
2023-12-30T12:38:22.840Z,32.00
2023-12-30T12:40:53.514Z,31.84
2023-12-30T12:43:23.589Z,31.78
2023-12-30T12:45:53.745Z,31.69
2023-12-30T12:48:24.345Z,31.59
2023-12-30T12:50:57.792Z,31.50
2023-12-30T12:53:28.294Z,31.37
2023-12-30T12:55:58.543Z,31.15
2023-12-30T12:58:28.756Z,31.26
2023-12-30T13:00:59.844Z,30.83
2023-12-30T13:03:30.171Z,31.14
2023-12-30T13:06:02.176Z,30.90
2023-12-30T13:08:34.361Z,31.17
2023-12-30T13:11:05.822Z,31.08
2023-12-30T13:13:36.126Z,31.06
2023-12-30T13:16:06.772Z,31.07
2023-12-30T13:18:37.200Z,30.95
2023-12-30T13:21:08.769Z,30.99
2023-12-30T13:23:38.990Z,30.98
2023-12-30T13:26:09.579Z,30.92
2023-12-30T13:28:40.824Z,30.96
2023-12-30T13:31:12.302Z,30.90
2023-12-30T13:33:46.267Z,30.82
2023-12-30T13:36:17.107Z,30.84
2023-12-30T13:38:54.074Z,30.85
2023-12-30T13:41:27.015Z,30.82
2023-12-30T13:43:57.480Z,30.77
2023-12-30T13:46:36.645Z,30.64
2023-12-30T13:49:11.354Z,30.61
2023-12-30T13:51:53.637Z,30.57
2023-12-30T13:54:25.065Z,30.44
2023-12-30T13:57:03.467Z,30.48
2023-12-30T13:59:34.307Z,30.37
2023-12-30T14:02:05.217Z,30.35
2023-12-30T14:04:35.968Z,30.33
2023-12-30T14:07:15.014Z,30.15
2023-12-30T14:10:01.401Z,30.26
2023-12-30T14:12:32.096Z,30.23
2023-12-30T14:15:08.728Z,30.20
2023-12-30T14:17:39.538Z,29.91
2023-12-30T14:20:12.409Z,30.15
2023-12-30T14:22:43.839Z,30.13
2023-12-30T14:25:14.407Z,30.08
2023-12-30T14:27:46.077Z,30.03
2023-12-30T14:30:16.373Z,29.84
2023-12-30T14:32:47.933Z,30.02
2023-12-30T14:35:18.152Z,29.89
2023-12-30T14:37:48.812Z,29.49
2023-12-30T14:40:19.285Z,29.99
2023-12-30T14:42:50.633Z,29.95
2023-12-30T14:45:21.790Z,30.00
2023-12-30T14:47:52.680Z,30.03
2023-12-30T14:50:23.064Z,30.02
2023-12-30T14:52:53.990Z,30.13
2023-12-30T14:55:24.403Z,30.14
2023-12-30T14:57:54.774Z,30.08
2023-12-30T15:00:26.326Z,29.89
2023-12-30T15:02:57.308Z,30.02
2023-12-30T15:05:27.821Z,30.15
2023-12-30T15:07:58.719Z,30.16
2023-12-30T15:10:29.560Z,30.17
2023-12-30T15:13:00.097Z,30.19
2023-12-30T15:15:30.571Z,30.20
2023-12-30T15:18:01.212Z,30.23
2023-12-30T15:20:31.878Z,30.21
2023-12-30T15:23:04.542Z,30.24
2023-12-30T15:25:37.008Z,30.09
2023-12-30T15:28:10.160Z,30.18
2023-12-30T15:30:41.510Z,30.19
2023-12-30T15:33:12.523Z,30.07
2023-12-30T15:35:42.843Z,30.16
2023-12-30T15:38:13.695Z,30.20
2023-12-30T15:40:45.443Z,30.13
2023-12-30T15:43:16.334Z,30.35
2023-12-30T15:45:46.684Z,30.50
2023-12-30T15:48:17.014Z,30.59
2023-12-30T15:50:48.062Z,30.61
2023-12-30T15:53:20.437Z,30.62
2023-12-30T15:55:51.836Z,30.61
2023-12-30T15:58:22.271Z,30.60
2023-12-30T16:00:53.619Z,30.60
2023-12-30T16:03:24.099Z,30.58
2023-12-30T16:05:54.379Z,30.49
2023-12-30T16:08:24.808Z,30.50
2023-12-30T16:10:55.451Z,30.50
2023-12-30T16:13:25.796Z,30.46
2023-12-30T16:15:57.735Z,30.35
2023-12-30T16:18:28.555Z,30.35
2023-12-30T16:21:00.240Z,30.32
2023-12-30T16:23:30.703Z,30.27
2023-12-30T16:26:00.965Z,30.32
2023-12-30T16:28:31.273Z,30.06
2023-12-30T16:31:01.794Z,30.11
2023-12-30T16:33:32.221Z,30.05
2023-12-30T16:36:02.479Z,30.00
2023-12-30T16:38:32.670Z,29.62
2023-12-30T16:41:02.911Z,29.89
2023-12-30T16:43:38.700Z,29.15
2023-12-30T16:46:09.118Z,30.01
2023-12-30T16:48:39.959Z,30.01
2023-12-30T16:51:10.310Z,30.04
2023-12-30T16:53:40.837Z,29.89
2023-12-30T16:56:11.563Z,29.92
2023-12-30T16:58:42.184Z,29.67
2023-12-30T17:01:12.590Z,29.93
2023-12-30T17:03:43.611Z,29.79
2023-12-30T17:06:13.771Z,29.88
2023-12-30T17:08:44.025Z,29.67
2023-12-30T17:11:14.162Z,29.83
2023-12-30T17:13:50.609Z,29.80
2023-12-30T17:16:24.461Z,29.76
2023-12-30T17:18:54.707Z,29.78
2023-12-30T17:21:25.319Z,29.61
2023-12-30T17:23:55.927Z,29.69
2023-12-30T17:26:26.326Z,29.72
2023-12-30T17:28:56.728Z,29.71
2023-12-30T17:31:26.829Z,29.75
2023-12-30T17:33:58.274Z,29.77
2023-12-30T17:36:28.610Z,29.72
2023-12-30T17:38:58.794Z,29.69
2023-12-30T17:41:29.324Z,29.64
2023-12-30T17:44:02.189Z,29.53
2023-12-30T17:46:34.796Z,29.54
2023-12-30T17:49:05.400Z,29.62
2023-12-30T17:51:35.551Z,29.66
2023-12-30T17:54:06.228Z,29.61
2023-12-30T17:56:36.572Z,29.62
2023-12-30T17:59:06.658Z,29.57
2023-12-30T18:02:02.357Z,29.46
2023-12-30T18:04:33.018Z,29.43
2023-12-30T18:07:03.255Z,29.58
2023-12-30T18:09:33.515Z,29.11
2023-12-30T18:12:04.481Z,29.59
2023-12-30T18:14:35.024Z,29.52
2023-12-30T18:17:05.504Z,29.51
2023-12-30T18:19:35.954Z,29.50
2023-12-30T18:22:06.626Z,29.44
2023-12-30T18:24:36.646Z,29.59
2023-12-30T18:27:07.811Z,29.31
2023-12-30T18:29:38.042Z,29.55
2023-12-30T18:32:09.917Z,29.43
2023-12-30T18:34:42.013Z,29.22
2023-12-30T18:37:16.193Z,29.54
2023-12-30T18:39:46.370Z,29.51
2023-12-30T18:42:16.765Z,29.55
2023-12-30T18:44:47.140Z,29.53
2023-12-30T18:47:18.903Z,29.42
2023-12-30T18:49:49.262Z,29.43
2023-12-30T18:52:20.116Z,29.53
2023-12-30T18:54:50.475Z,29.38
2023-12-30T18:57:20.490Z,29.37
2023-12-30T18:59:50.811Z,29.49
2023-12-30T19:02:21.062Z,29.45
2023-12-30T19:04:51.618Z,29.35
2023-12-30T19:07:21.795Z,29.44
2023-12-30T19:09:52.176Z,29.26
2023-12-30T19:12:22.406Z,29.44
2023-12-30T19:14:52.838Z,29.44
2023-12-30T19:17:26.663Z,29.23
2023-12-30T19:19:57.095Z,29.39
2023-12-30T19:22:28.112Z,29.30
2023-12-30T19:25:00.533Z,29.32
2023-12-30T19:27:30.926Z,29.27
2023-12-30T19:30:00.982Z,29.25
2023-12-30T19:32:31.661Z,29.25
2023-12-30T19:35:02.812Z,29.26
2023-12-30T19:37:34.458Z,29.22
2023-12-30T19:40:05.854Z,29.26
2023-12-30T19:42:36.375Z,29.23
2023-12-30T19:45:08.993Z,29.13
2023-12-30T19:47:40.859Z,29.25
2023-12-30T19:50:12.160Z,29.17
2023-12-30T19:52:42.537Z,29.22
2023-12-30T19:55:12.951Z,29.19
2023-12-30T19:57:43.637Z,29.18
2023-12-30T20:00:17.059Z,29.20
2023-12-30T20:02:48.924Z,28.99
2023-12-30T20:05:19.324Z,29.16
2023-12-30T20:07:49.433Z,29.05
2023-12-30T20:10:21.718Z,29.14
2023-12-30T20:12:52.095Z,29.20
2023-12-30T20:15:23.027Z,29.12
2023-12-30T20:17:53.470Z,29.14
2023-12-30T20:20:23.714Z,29.16
2023-12-30T20:22:54.773Z,29.14
2023-12-30T20:25:24.908Z,28.76
2023-12-30T20:27:56.133Z,29.03
2023-12-30T20:30:26.458Z,29.35
2023-12-30T20:32:56.738Z,29.44
2023-12-30T20:35:27.438Z,29.38
2023-12-30T20:37:58.107Z,29.47
2023-12-30T20:40:28.827Z,29.47
2023-12-30T20:42:59.469Z,29.47
2023-12-30T20:45:30.565Z,28.95
2023-12-30T20:48:01.111Z,29.44
2023-12-30T20:50:31.547Z,29.43
2023-12-30T20:53:02.008Z,29.37
2023-12-30T20:55:33.761Z,29.44
2023-12-30T20:58:04.191Z,29.22
2023-12-30T21:00:34.475Z,29.27
2023-12-30T21:03:06.677Z,29.30
2023-12-30T21:05:36.602Z,29.09
2023-12-30T21:08:06.650Z,29.16
2023-12-30T21:10:36.913Z,29.24
2023-12-30T21:13:07.304Z,29.32
2023-12-30T21:15:37.600Z,29.32
2023-12-30T21:18:07.736Z,29.28
2023-12-30T21:20:38.179Z,29.29
2023-12-30T21:23:10.503Z,29.17
2023-12-30T21:25:40.443Z,29.02
2023-12-30T21:28:10.773Z,29.23
2023-12-30T21:30:40.896Z,29.25
2023-12-30T21:33:11.341Z,29.10
2023-12-30T21:35:41.658Z,29.23
2023-12-30T21:38:12.134Z,29.21
2023-12-30T21:40:42.497Z,29.12
2023-12-30T21:43:13.083Z,29.18
2023-12-30T21:45:43.643Z,29.18
2023-12-30T21:48:15.160Z,29.17
2023-12-30T21:50:45.884Z,29.13
2023-12-30T21:53:17.223Z,29.12
2023-12-30T21:55:47.357Z,28.90
2023-12-30T21:58:17.901Z,29.12
2023-12-30T22:00:48.276Z,29.11
2023-12-30T22:03:18.501Z,29.12
2023-12-30T22:05:48.809Z,29.10
2023-12-30T22:08:19.236Z,28.70
2023-12-30T22:10:49.325Z,29.01
2023-12-30T22:13:19.776Z,29.06
2023-12-30T22:15:50.097Z,28.92
2023-12-30T22:18:20.844Z,29.06
2023-12-30T22:20:50.950Z,29.04
2023-12-30T22:23:22.141Z,29.04
2023-12-30T22:25:52.614Z,29.02
2023-12-30T22:28:23.095Z,28.99
2023-12-30T22:30:53.559Z,29.00
2023-12-30T22:33:23.967Z,28.92
2023-12-30T22:35:54.194Z,28.99
2023-12-30T22:38:24.553Z,28.88
2023-12-30T22:40:54.541Z,28.76
2023-12-30T22:43:24.921Z,28.83
2023-12-30T22:45:55.311Z,28.86
2023-12-30T22:48:25.559Z,28.92
2023-12-30T22:50:55.960Z,28.93
2023-12-30T22:53:26.193Z,28.92
2023-12-30T22:55:56.498Z,28.90
2023-12-30T22:58:26.709Z,28.90
2023-12-30T23:00:56.873Z,28.70
2023-12-30T23:03:27.590Z,28.68
2023-12-30T23:05:58.229Z,28.59
2023-12-30T23:08:28.543Z,28.81
2023-12-30T23:10:58.669Z,28.82
2023-12-30T23:13:28.841Z,28.93
2023-12-30T23:15:59.078Z,28.99
2023-12-30T23:18:29.428Z,29.12
2023-12-30T23:20:59.599Z,29.15
2023-12-30T23:23:30.445Z,29.22
2023-12-30T23:26:00.810Z,29.27
2023-12-30T23:28:31.114Z,29.33
2023-12-30T23:31:01.243Z,29.40
2023-12-30T23:33:31.614Z,29.40
2023-12-30T23:36:01.733Z,29.44
2023-12-30T23:38:32.047Z,29.25
2023-12-30T23:41:02.474Z,29.54
2023-12-30T23:43:33.791Z,29.56
2023-12-30T23:46:04.267Z,29.60
2023-12-30T23:48:34.500Z,29.67
2023-12-30T23:51:04.717Z,29.63
2023-12-30T23:53:36.166Z,29.72
2023-12-30T23:56:07.726Z,29.75
2023-12-30T23:58:38.033Z,29.76
